createdAt,value
2019-03-17T00:00:44.473Z,45.60
2019-03-17T00:05:51.277Z,46.28
2019-03-17T00:10:55.080Z,45.94
2019-03-17T00:15:59.199Z,45.94
2019-03-17T00:21:03.108Z,46.46
2019-03-17T00:26:06.913Z,46.19
2019-03-17T00:31:22.915Z,46.13
2019-03-17T00:36:16.222Z,46.21
2019-03-17T00:41:19.992Z,46.29
2019-03-17T00:46:23.784Z,46.37
2019-03-17T00:51:27.877Z,46.63
2019-03-17T00:56:31.672Z,47.00
2019-03-17T01:01:35.431Z,46.58
2019-03-17T01:06:39.193Z,46.58
2019-03-17T01:11:42.954Z,46.55
2019-03-17T01:16:46.875Z,46.55
2019-03-17T01:21:50.907Z,47.02
2019-03-17T01:26:54.655Z,47.02
2019-03-17T01:31:58.423Z,46.93
2019-03-17T01:37:02.303Z,47.67
2019-03-17T01:42:06.105Z,46.93
2019-03-17T01:47:09.926Z,47.03
2019-03-17T01:52:13.680Z,47.03
2019-03-17T01:57:17.425Z,47.13
2019-03-17T02:02:21.222Z,46.99
2019-03-17T02:07:25.007Z,47.51
2019-03-17T02:12:28.873Z,47.51
2019-03-17T02:17:32.706Z,47.34
2019-03-17T02:22:36.458Z,47.40
2019-03-17T02:27:40.232Z,47.21
2019-03-17T02:32:44.049Z,47.16
2019-03-17T02:37:47.899Z,47.72
2019-03-17T02:42:51.666Z,47.02
2019-03-17T02:47:55.449Z,47.01
2019-03-17T02:52:59.287Z,47.01
2019-03-17T02:58:03.066Z,46.73
2019-03-17T03:03:06.809Z,46.73
2019-03-17T03:08:10.635Z,47.13
2019-03-17T03:13:14.454Z,47.32
2019-03-17T03:18:18.300Z,47.03
2019-03-17T03:23:22.122Z,47.03
2019-03-17T03:28:25.896Z,47.03
2019-03-17T03:33:29.675Z,47.61
2019-03-17T03:38:33.454Z,47.42
2019-03-17T03:43:37.211Z,47.68
2019-03-17T03:48:40.967Z,47.68
2019-03-17T03:53:44.812Z,47.43
2019-03-17T03:58:48.683Z,47.53
2019-03-17T04:03:53.696Z,47.31
2019-03-17T04:08:57.450Z,47.31
2019-03-17T04:14:01.246Z,48.11
2019-03-17T04:19:05.030Z,47.23
2019-03-17T04:24:08.809Z,47.55
2019-03-17T04:29:13.818Z,47.75
2019-03-17T04:34:17.590Z,48.08
2019-03-17T04:39:21.417Z,48.39
2019-03-17T04:44:25.243Z,48.01
2019-03-17T04:49:29.024Z,48.01
2019-03-17T04:54:32.871Z,48.14
2019-03-17T04:59:36.628Z,47.56
2019-03-17T05:04:40.389Z,47.83
2019-03-17T05:09:44.175Z,47.83
2019-03-17T05:14:47.938Z,47.87
2019-03-17T05:19:51.752Z,47.89
2019-03-17T05:24:55.518Z,47.95
2019-03-17T05:29:59.274Z,47.95
2019-03-17T05:35:03.181Z,47.68
2019-03-17T05:40:06.940Z,47.68
2019-03-17T05:45:10.714Z,47.89
2019-03-17T05:50:14.498Z,48.36
2019-03-17T05:55:18.355Z,48.53
2019-03-17T06:00:22.326Z,48.36
2019-03-17T06:05:26.256Z,48.36
2019-03-17T06:10:30.013Z,48.57
2019-03-17T06:15:33.806Z,48.18
2019-03-17T06:20:37.573Z,48.25
2019-03-17T06:25:41.516Z,48.51
2019-03-17T06:30:45.274Z,48.65
2019-03-17T06:35:49.040Z,48.59
2019-03-17T06:40:52.914Z,48.91
2019-03-17T06:45:56.682Z,48.56
2019-03-17T06:51:00.517Z,48.80
2019-03-17T06:56:04.373Z,48.88
2019-03-17T07:01:08.133Z,48.59
2019-03-17T07:06:11.911Z,48.50
2019-03-17T07:11:15.681Z,48.50
2019-03-17T07:16:19.454Z,48.73
2019-03-17T07:21:23.258Z,48.60
2019-03-17T07:26:27.079Z,48.59
2019-03-17T07:31:30.849Z,49.14
2019-03-17T07:36:43.531Z,48.80
2019-03-17T07:41:47.315Z,48.38
2019-03-17T07:46:51.136Z,48.67
2019-03-17T07:51:54.936Z,48.67
2019-03-17T07:56:58.786Z,48.55
2019-03-17T08:02:02.653Z,47.34
2019-03-17T08:07:06.497Z,47.66
2019-03-17T08:12:10.296Z,46.86
2019-03-17T08:17:14.113Z,46.86
2019-03-17T08:22:17.927Z,46.83
2019-03-17T08:27:21.773Z,45.71
2019-03-17T08:32:25.613Z,45.74
2019-03-17T08:37:29.425Z,44.50
2019-03-17T08:42:33.304Z,44.50
2019-03-17T08:47:37.181Z,43.21
2019-03-17T08:52:40.994Z,42.96
2019-03-17T08:57:44.811Z,43.19
2019-03-17T09:02:48.596Z,43.59
2019-03-17T09:07:52.385Z,43.81
2019-03-17T09:12:56.290Z,43.22
2019-03-17T09:18:00.066Z,43.22
2019-03-17T09:23:03.890Z,43.33
2019-03-17T09:28:07.686Z,43.70
2019-03-17T09:33:11.468Z,43.29
2019-03-17T09:38:15.373Z,42.72
2019-03-17T09:43:19.171Z,43.20
2019-03-17T09:48:22.986Z,42.62
2019-03-17T09:53:28.624Z,43.35
2019-03-17T09:58:32.324Z,43.01
2019-03-17T10:03:36.108Z,43.01
2019-03-17T10:08:39.928Z,43.68
2019-03-17T10:13:43.717Z,43.86
2019-03-17T10:18:47.577Z,43.57
2019-03-17T10:23:51.399Z,43.57
2019-03-17T10:28:55.220Z,42.74
2019-03-17T10:33:59.023Z,44.02
2019-03-17T10:39:12.274Z,43.15
2019-03-17T10:44:08.920Z,43.15
2019-03-17T10:49:12.717Z,43.23
2019-03-17T10:54:16.505Z,43.23
2019-03-17T10:59:20.433Z,43.15
2019-03-17T11:04:24.408Z,43.15
2019-03-17T11:09:28.203Z,43.62
2019-03-17T11:14:32.099Z,43.72
2019-03-17T11:19:35.908Z,44.07
2019-03-17T11:24:39.843Z,43.89
2019-03-17T11:29:43.671Z,44.30
2019-03-17T11:34:47.651Z,43.03
2019-03-17T11:39:51.447Z,43.35
2019-03-17T11:44:55.228Z,43.35
2019-03-17T11:49:59.023Z,45.11
2019-03-17T11:55:02.892Z,45.01
2019-03-17T12:00:07.636Z,45.67
2019-03-17T12:05:11.445Z,45.21
2019-03-17T12:10:15.267Z,44.87
2019-03-17T12:15:19.206Z,45.19
2019-03-17T12:20:23.056Z,44.42
2019-03-17T12:25:26.837Z,45.00
2019-03-17T12:30:30.622Z,45.06
2019-03-17T12:35:34.467Z,45.06
2019-03-17T12:40:38.276Z,44.94
2019-03-17T12:45:42.145Z,45.24
2019-03-17T12:50:45.943Z,45.24
2019-03-17T12:55:49.764Z,44.08
2019-03-17T13:00:53.778Z,45.27
2019-03-17T13:05:57.602Z,45.27
2019-03-17T13:11:01.953Z,44.37
2019-03-17T13:16:05.767Z,44.37
2019-03-17T13:21:09.616Z,45.07
2019-03-17T13:26:13.447Z,45.07
2019-03-17T13:31:17.243Z,45.40
2019-03-17T13:36:21.136Z,45.40
2019-03-17T13:41:25.130Z,45.02
2019-03-17T13:46:29.343Z,44.96
2019-03-17T13:51:33.220Z,45.40
2019-03-17T13:56:37.048Z,45.40
2019-03-17T14:01:40.834Z,45.61
2019-03-17T14:06:44.665Z,45.61
2019-03-17T14:11:48.442Z,45.36
2019-03-17T14:16:52.550Z,45.65
2019-03-17T14:21:56.399Z,45.31
2019-03-17T14:27:00.171Z,45.33
2019-03-17T14:32:04.056Z,45.33
2019-03-17T14:37:07.839Z,45.13
2019-03-17T14:42:11.654Z,45.31
2019-03-17T14:47:15.444Z,44.29
2019-03-17T14:52:19.216Z,45.16
2019-03-17T14:57:22.982Z,45.16
2019-03-17T15:02:26.765Z,44.84
2019-03-17T15:07:30.567Z,44.90
2019-03-17T15:12:34.384Z,44.90
2019-03-17T15:17:38.159Z,45.68
2019-03-17T15:22:41.920Z,45.38
2019-03-17T15:27:45.744Z,45.16
2019-03-17T15:32:49.560Z,44.96
2019-03-17T15:37:53.445Z,45.47
2019-03-17T15:42:57.308Z,45.79
2019-03-17T15:48:03.966Z,46.00
2019-03-17T15:53:06.641Z,46.23
2019-03-17T15:58:10.409Z,46.23
2019-03-17T16:03:14.195Z,46.38
2019-03-17T16:08:17.982Z,46.29
2019-03-17T16:13:21.779Z,46.29
2019-03-17T16:18:25.537Z,45.86
2019-03-17T16:23:29.302Z,46.25
2019-03-17T16:28:33.108Z,46.25
2019-03-17T16:33:36.943Z,46.53
2019-03-17T16:38:40.858Z,46.78
2019-03-17T16:43:44.728Z,46.41
2019-03-17T16:48:48.804Z,46.55
2019-03-17T16:53:52.605Z,46.34
2019-03-17T16:58:56.426Z,47.09
2019-03-17T17:04:00.236Z,46.87
2019-03-17T17:09:05.393Z,46.87
2019-03-17T17:14:09.329Z,46.83
2019-03-17T17:19:13.146Z,46.99
2019-03-17T17:24:16.948Z,46.99
2019-03-17T17:29:20.830Z,46.76
2019-03-17T17:34:24.641Z,46.63
2019-03-17T17:39:28.590Z,47.04
2019-03-17T17:44:32.397Z,47.04
2019-03-17T17:49:36.226Z,45.93
2019-03-17T17:54:40.100Z,45.27
2019-03-17T17:59:43.889Z,44.30
2019-03-17T18:04:47.773Z,44.73
2019-03-17T18:09:51.810Z,44.73
2019-03-17T18:14:55.613Z,43.90
2019-03-17T18:19:59.564Z,43.90
2019-03-17T18:25:05.028Z,43.77
2019-03-17T18:30:10.584Z,43.87
2019-03-17T18:35:14.385Z,43.69
2019-03-17T18:40:18.183Z,43.69
2019-03-17T18:45:22.065Z,43.46
2019-03-17T18:50:26.874Z,43.51
2019-03-17T18:55:30.665Z,44.86
2019-03-17T19:00:34.460Z,44.36
2019-03-17T19:05:38.278Z,43.50
2019-03-17T19:10:42.125Z,43.13
2019-03-17T19:15:45.914Z,43.61
2019-03-17T19:20:49.682Z,43.75
2019-03-17T19:25:53.471Z,43.75
2019-03-17T19:30:57.332Z,44.10
2019-03-17T19:36:01.161Z,43.87
2019-03-17T19:41:05.347Z,43.87
2019-03-17T19:46:09.210Z,44.14
2019-03-17T19:51:13.028Z,44.08
2019-03-17T19:56:16.860Z,43.54
2019-03-17T20:01:20.677Z,43.79
2019-03-17T20:06:24.461Z,43.10
2019-03-17T20:11:28.229Z,43.10
2019-03-17T20:16:31.994Z,43.89
2019-03-17T20:21:37.071Z,43.90
2019-03-17T20:26:40.854Z,44.33
2019-03-17T20:31:44.646Z,44.33
2019-03-17T20:36:48.530Z,44.50
2019-03-17T20:41:52.363Z,44.89
2019-03-17T20:57:01.832Z,44.70
2019-03-17T21:02:05.882Z,44.54
2019-03-17T21:07:09.726Z,45.01
2019-03-17T21:12:13.673Z,44.83
2019-03-17T21:17:17.560Z,44.90
2019-03-17T21:22:21.360Z,44.92
2019-03-17T21:27:25.243Z,44.52
2019-03-17T21:32:29.088Z,44.52
2019-03-17T21:37:32.867Z,45.54
2019-03-17T21:42:36.649Z,45.67
2019-03-17T21:47:40.479Z,45.79
2019-03-17T21:52:44.255Z,45.82
2019-03-17T21:57:48.062Z,45.59
2019-03-17T22:02:54.976Z,45.11
2019-03-17T22:07:58.106Z,45.70
2019-03-17T22:13:01.921Z,45.70
2019-03-17T22:18:05.862Z,44.86
2019-03-17T22:23:09.640Z,45.65
2019-03-17T22:28:13.517Z,45.54
2019-03-17T22:33:17.282Z,45.54
2019-03-17T22:38:21.099Z,44.79
2019-03-17T22:43:24.896Z,44.79
2019-03-17T22:48:28.664Z,45.49
2019-03-17T22:53:32.435Z,45.74
2019-03-17T22:58:36.231Z,46.03
2019-03-17T23:03:40.001Z,45.96
2019-03-17T23:08:43.800Z,45.96
2019-03-17T23:13:47.660Z,46.57
2019-03-17T23:18:51.470Z,46.57
2019-03-17T23:23:55.282Z,45.67
2019-03-17T23:28:59.097Z,46.17
2019-03-17T23:34:03.102Z,46.02
2019-03-17T23:39:07.698Z,46.11
2019-03-17T23:44:11.507Z,46.09
2019-03-17T23:49:15.314Z,46.67
2019-03-17T23:54:19.121Z,46.67
2019-03-17T23:59:22.927Z,46.10
